Ashland, Virginia
Current Conditions -  °F | °C
As of 12:54 PM on Wednesday 28 Jan 2015 (Local Time) from KOFP Reporting Station
Clear Clear  
Wind Chill: 32°   Ceiling: Unl
Heat Index: 38°   Visibility: 10mi
Dew Point:   Wind: 8mph
Humidity: 28%   Direction: 340°NNW
Pressure: 30.23"   Gusts: NA
Location:  37.76°N, 77.48°W
Report Text: KOFP 281754Z AUTO 34007KT 300V020 10SM CLR 03/M14 A3023 RMK AO2 SLP239 T00331139 10033 21050 58005
Loading
Personal Weather Stations






























Interactive Weather Map New forecast layout! Learn more

10-Day Weather Forecast

Advertisements
Track Severe Weather on mobile